createdAt,value
2023-03-14T00:00:23.743Z,90.25
2023-03-14T00:01:23.994Z,90.14
2023-03-14T00:02:24.258Z,90.04
2023-03-14T00:03:24.596Z,89.84
2023-03-14T00:04:24.860Z,89.94
2023-03-14T00:05:25.169Z,89.84
2023-03-14T00:06:25.460Z,89.73
2023-03-14T00:07:25.727Z,89.73
2023-03-14T00:08:26.080Z,89.90
2023-03-14T00:09:26.371Z,89.73
2023-03-14T00:10:26.686Z,89.94
2023-03-14T00:11:26.955Z,90.04
2023-03-14T00:12:27.306Z,89.79
2023-03-14T00:13:27.540Z,89.53
2023-03-14T00:14:27.932Z,89.63
2023-03-14T00:15:28.135Z,89.73
2023-03-14T00:16:28.441Z,89.49
2023-03-14T00:17:28.699Z,89.28
2023-03-14T00:18:29.003Z,89.53
2023-03-14T00:19:29.254Z,89.49
2023-03-14T00:20:35.372Z,89.53
2023-03-14T00:21:29.942Z,89.59
2023-03-14T00:22:30.281Z,89.18
2023-03-14T00:23:30.448Z,89.39
2023-03-14T00:24:30.707Z,89.43
2023-03-14T00:25:31.041Z,89.28
2023-03-14T00:26:31.361Z,89.39
2023-03-14T00:27:31.641Z,89.28
2023-03-14T00:28:31.968Z,89.28
2023-03-14T00:29:32.270Z,89.28
2023-03-14T00:30:32.485Z,89.28
2023-03-14T00:31:32.956Z,89.18
2023-03-14T00:32:33.202Z,89.39
2023-03-14T00:33:33.458Z,89.18
2023-03-14T00:34:33.766Z,89.18
2023-03-14T00:35:34.080Z,89.08
2023-03-14T00:36:34.418Z,88.98
2023-03-14T00:37:34.744Z,89.08
2023-03-14T00:38:35.016Z,89.18
2023-03-14T00:39:35.357Z,89.08
2023-03-14T00:40:35.570Z,88.88
2023-03-14T00:41:35.893Z,88.98
2023-03-14T00:42:36.153Z,89.08
2023-03-14T00:43:36.454Z,88.98
2023-03-14T00:44:36.617Z,88.98
2023-03-14T00:45:36.932Z,88.78
2023-03-14T00:46:39.000Z,88.98
2023-03-14T00:47:37.527Z,88.88
2023-03-14T00:48:37.810Z,89.08
2023-03-14T00:49:38.083Z,89.28
2023-03-14T00:50:38.399Z,88.98
2023-03-14T00:51:39.516Z,88.98
2023-03-14T00:52:38.998Z,88.88
2023-03-14T00:53:39.256Z,88.78
2023-03-14T00:54:39.477Z,88.47
2023-03-14T00:55:39.659Z,88.67
2023-03-14T00:56:39.991Z,88.47
2023-03-14T00:57:40.314Z,88.47
2023-03-14T00:58:40.630Z,88.37
2023-03-14T00:59:40.941Z,88.67
2023-03-14T01:00:41.258Z,88.67
2023-03-14T01:01:41.584Z,88.67
2023-03-14T01:02:41.807Z,88.67
2023-03-14T01:03:42.092Z,88.78
2023-03-14T01:04:42.407Z,88.88
2023-03-14T01:05:42.719Z,88.98
2023-03-14T01:06:43.009Z,89.28
2023-03-14T01:07:43.281Z,89.28
2023-03-14T01:08:43.596Z,89.18
2023-03-14T01:09:43.885Z,89.39
2023-03-14T01:10:44.200Z,89.39
2023-03-14T01:11:44.506Z,89.49
2023-03-14T01:12:44.759Z,89.69
2023-03-14T01:13:45.136Z,89.79
2023-03-14T01:14:45.291Z,89.69
2023-03-14T01:15:45.628Z,89.79
2023-03-14T01:16:45.912Z,89.90
2023-03-14T01:17:46.202Z,89.79
2023-03-14T01:18:46.499Z,89.90
2023-03-14T01:19:46.823Z,90.00
2023-03-14T01:20:47.142Z,90.31
2023-03-14T01:21:47.442Z,90.31
2023-03-14T01:22:48.569Z,90.41
2023-03-14T01:23:48.753Z,90.66
2023-03-14T01:24:48.924Z,90.86
2023-03-14T01:25:48.640Z,90.66
2023-03-14T01:26:48.942Z,90.66
2023-03-14T01:27:49.221Z,90.75
2023-03-14T01:28:49.489Z,90.75
2023-03-14T01:29:49.820Z,90.75
2023-03-14T01:30:50.096Z,90.75
2023-03-14T01:31:50.447Z,90.66
2023-03-14T01:32:50.692Z,90.55
2023-03-14T01:33:50.950Z,90.75
2023-03-14T01:34:51.263Z,90.75
2023-03-14T01:35:51.590Z,90.75
2023-03-14T01:36:51.893Z,90.75
2023-03-14T01:37:52.178Z,90.86
2023-03-14T01:38:52.479Z,90.86
2023-03-14T01:39:52.782Z,90.96
2023-03-14T01:40:53.069Z,90.96
2023-03-14T01:41:53.344Z,91.06
2023-03-14T01:42:53.747Z,91.06
2023-03-14T01:43:53.957Z,91.06
2023-03-14T01:44:54.281Z,90.96
2023-03-14T01:45:54.588Z,91.06
2023-03-14T01:46:54.935Z,91.27
2023-03-14T01:47:55.174Z,91.27
2023-03-14T01:48:55.499Z,91.27
2023-03-14T01:49:55.770Z,91.27
2023-03-14T01:50:56.126Z,91.27
2023-03-14T01:51:56.428Z,91.37
2023-03-14T01:52:56.722Z,91.27
2023-03-14T01:53:56.996Z,91.37
2023-03-14T01:54:57.283Z,91.37
2023-03-14T01:55:57.579Z,91.37
2023-03-14T01:56:57.917Z,91.27
2023-03-14T01:57:58.201Z,91.37
2023-03-14T01:58:58.471Z,91.27
2023-03-14T01:59:58.787Z,91.16
2023-03-14T02:00:59.095Z,91.06
2023-03-14T02:01:59.358Z,91.06
2023-03-14T02:02:59.738Z,91.06
2023-03-14T02:04:00.006Z,91.16
2023-03-14T02:05:00.387Z,91.16
2023-03-14T02:06:00.630Z,91.06
2023-03-14T02:07:00.953Z,90.96
2023-03-14T02:08:01.288Z,91.06
2023-03-14T02:09:01.550Z,91.06
2023-03-14T02:10:01.847Z,91.06
2023-03-14T02:11:02.151Z,90.96
2023-03-14T02:12:02.437Z,90.96
2023-03-14T02:13:02.707Z,91.06
2023-03-14T02:14:03.027Z,90.96
2023-03-14T02:15:03.292Z,90.86
2023-03-14T02:16:03.683Z,90.75
2023-03-14T02:17:03.833Z,90.45
2023-03-14T02:18:04.164Z,90.66
2023-03-14T02:19:04.466Z,90.55
2023-03-14T02:20:04.758Z,90.66
2023-03-14T02:21:05.111Z,90.55
2023-03-14T02:22:05.362Z,90.55
2023-03-14T02:23:05.620Z,90.45
2023-03-14T02:24:05.968Z,90.25
2023-03-14T02:25:06.262Z,90.35
2023-03-14T02:26:06.538Z,90.45
2023-03-14T02:27:06.805Z,90.14
2023-03-14T02:28:07.120Z,89.84
2023-03-14T02:29:07.471Z,89.63
2023-03-14T02:30:07.733Z,89.12
2023-03-14T02:31:08.079Z,89.02
2023-03-14T02:32:08.404Z,88.61
2023-03-14T02:33:08.589Z,88.61
2023-03-14T02:34:08.952Z,88.61
2023-03-14T02:35:09.243Z,88.41
2023-03-14T02:36:09.630Z,88.31
2023-03-14T02:37:09.789Z,88.10
2023-03-14T02:38:10.944Z,88.31
2023-03-14T02:39:10.362Z,88.10
2023-03-14T02:40:10.741Z,88.10
2023-03-14T02:41:10.894Z,88.00
2023-03-14T02:42:11.199Z,88.00
2023-03-14T02:43:11.480Z,88.10
2023-03-14T02:44:11.808Z,88.20
2023-03-14T02:45:12.102Z,88.41
2023-03-14T02:46:12.457Z,88.41
2023-03-14T02:47:12.759Z,88.31
2023-03-14T02:48:13.037Z,88.61
2023-03-14T02:49:13.360Z,88.61
2023-03-14T02:50:13.674Z,88.61
2023-03-14T02:51:13.958Z,88.61
2023-03-14T02:52:14.229Z,88.61
2023-03-14T02:53:14.579Z,88.51
2023-03-14T02:54:14.887Z,88.61
2023-03-14T02:55:15.171Z,88.51
2023-03-14T02:56:15.456Z,88.41
2023-03-14T02:57:15.794Z,88.41
2023-03-14T02:58:16.045Z,88.76
2023-03-14T02:59:16.392Z,88.76
2023-03-14T03:00:16.668Z,88.45
2023-03-14T03:01:17.025Z,88.45
2023-03-14T03:02:17.312Z,88.24
2023-03-14T03:03:17.691Z,88.24
2023-03-14T03:04:17.955Z,88.14
2023-03-14T03:05:18.242Z,88.14
2023-03-14T03:06:18.558Z,87.94
2023-03-14T03:07:18.870Z,87.79
2023-03-14T03:08:19.173Z,87.59
2023-03-14T03:09:19.546Z,87.49
2023-03-14T03:10:19.679Z,87.53
2023-03-14T03:11:20.036Z,87.73
2023-03-14T03:12:20.323Z,87.73
2023-03-14T03:13:20.650Z,87.63
2023-03-14T03:14:20.905Z,87.53
2023-03-14T03:15:21.233Z,87.32
2023-03-14T03:16:21.568Z,87.23
2023-03-14T03:17:21.888Z,87.08
2023-03-14T03:18:22.197Z,87.18
2023-03-14T03:19:22.485Z,87.02
2023-03-14T03:20:22.739Z,87.29
2023-03-14T03:21:23.083Z,87.32
2023-03-14T03:22:23.392Z,87.32
2023-03-14T03:23:23.664Z,87.23
2023-03-14T03:24:23.960Z,87.32
2023-03-14T03:25:24.265Z,87.53
2023-03-14T03:26:24.589Z,87.43
2023-03-14T03:27:24.838Z,87.43
2023-03-14T03:28:25.106Z,87.43
2023-03-14T03:29:25.386Z,87.43
2023-03-14T03:30:25.800Z,87.53
2023-03-14T03:31:25.932Z,87.43
2023-03-14T03:32:26.254Z,87.32
2023-03-14T03:33:26.517Z,87.53
2023-03-14T03:34:26.861Z,87.32
2023-03-14T03:35:27.182Z,87.23
2023-03-14T03:36:27.448Z,87.02
2023-03-14T03:37:27.778Z,86.82
2023-03-14T03:38:28.124Z,86.30
2023-03-14T03:39:28.411Z,86.30
2023-03-14T03:40:28.731Z,86.51
2023-03-14T03:41:29.024Z,86.51
2023-03-14T03:42:29.287Z,86.61
2023-03-14T03:43:29.662Z,86.61
2023-03-14T03:44:29.974Z,86.71
2023-03-14T03:45:30.274Z,86.61
2023-03-14T03:46:30.584Z,86.61
2023-03-14T03:47:30.881Z,86.71
2023-03-14T03:48:31.164Z,86.61
2023-03-14T03:49:31.461Z,86.61
2023-03-14T03:50:32.645Z,86.41
2023-03-14T03:51:32.120Z,86.51
2023-03-14T03:52:32.379Z,86.61
2023-03-14T03:53:34.118Z,86.61
2023-03-14T03:54:32.990Z,86.30
2023-03-14T03:55:33.310Z,86.30
2023-03-14T03:56:33.581Z,86.20
2023-03-14T03:57:33.856Z,86.10
2023-03-14T03:58:34.159Z,86.41
2023-03-14T03:59:34.505Z,86.51
2023-03-14T04:00:34.807Z,86.82
2023-03-14T04:01:35.112Z,86.82
2023-03-14T04:02:36.266Z,86.82
2023-03-14T04:03:35.726Z,86.82
2023-03-14T04:04:35.997Z,86.91
2023-03-14T04:05:36.279Z,87.23
2023-03-14T04:06:36.533Z,87.43
2023-03-14T04:07:36.836Z,87.47
2023-03-14T04:08:37.098Z,87.57
2023-03-14T04:09:37.484Z,87.32
2023-03-14T04:10:37.609Z,87.43
2023-03-14T04:11:37.911Z,87.32
2023-03-14T04:12:38.249Z,87.26
2023-03-14T04:13:38.579Z,87.47
2023-03-14T04:14:38.803Z,87.57
2023-03-14T04:15:39.140Z,87.43
2023-03-14T04:16:39.333Z,87.06
2023-03-14T04:17:39.624Z,87.16
2023-03-14T04:18:39.926Z,87.06
2023-03-14T04:19:40.238Z,86.96
2023-03-14T04:20:40.511Z,86.96
2023-03-14T04:21:40.850Z,86.85
2023-03-14T04:22:42.847Z,86.55
2023-03-14T04:23:41.474Z,86.65
2023-03-14T04:24:41.774Z,86.55
2023-03-14T04:25:42.101Z,86.44
2023-03-14T04:26:42.406Z,86.55
2023-03-14T04:27:42.660Z,86.65
2023-03-14T04:28:43.082Z,86.85
2023-03-14T04:29:43.235Z,86.85
2023-03-14T04:30:43.496Z,86.85
2023-03-14T04:31:43.784Z,86.85
2023-03-14T04:32:44.129Z,87.06
2023-03-14T04:33:46.017Z,87.26
2023-03-14T04:34:44.753Z,87.26
2023-03-14T04:35:45.059Z,87.37
2023-03-14T04:36:45.306Z,87.47
2023-03-14T04:37:45.638Z,87.67
2023-03-14T04:38:45.867Z,87.67
2023-03-14T04:39:46.202Z,87.57
2023-03-14T04:40:46.509Z,87.57
2023-03-14T04:41:46.765Z,87.67
2023-03-14T04:42:47.110Z,87.67
2023-03-14T04:43:47.400Z,87.88
2023-03-14T04:44:47.742Z,88.02
2023-03-14T04:45:48.016Z,87.92
2023-03-14T04:46:48.401Z,87.77
2023-03-14T04:47:48.642Z,87.77
2023-03-14T04:48:48.930Z,87.67
2023-03-14T04:49:49.177Z,87.47
2023-03-14T04:50:49.544Z,87.57
2023-03-14T04:51:49.719Z,87.47
2023-03-14T04:52:49.999Z,87.41
2023-03-14T04:53:50.287Z,87.51
2023-03-14T04:54:50.989Z,87.30
2023-03-14T04:55:50.951Z,87.41
2023-03-14T04:56:51.236Z,87.20
2023-03-14T04:57:51.544Z,87.41
2023-03-14T04:58:51.824Z,87.51
2023-03-14T04:59:52.204Z,87.20
2023-03-14T05:00:52.642Z,86.69
2023-03-14T05:01:52.779Z,86.55
2023-03-14T05:02:53.065Z,86.38
2023-03-14T05:03:53.397Z,86.38
2023-03-14T05:04:53.717Z,86.18
2023-03-14T05:05:54.888Z,85.63
2023-03-14T05:06:55.058Z,85.53
2023-03-14T05:07:54.482Z,85.42
2023-03-14T05:08:55.702Z,85.32
2023-03-14T05:09:55.872Z,85.32
2023-03-14T05:10:56.036Z,85.22
2023-03-14T05:11:56.234Z,85.22
2023-03-14T05:12:55.908Z,85.12
2023-03-14T05:13:56.227Z,85.12
2023-03-14T05:14:57.388Z,85.22
2023-03-14T05:15:56.832Z,85.12
2023-03-14T05:16:57.077Z,85.22
2023-03-14T05:17:57.798Z,85.02
2023-03-14T05:18:57.561Z,85.22
2023-03-14T05:19:57.860Z,85.12
2023-03-14T05:20:59.033Z,85.47
2023-03-14T05:21:58.505Z,85.32
2023-03-14T05:22:58.779Z,85.16
2023-03-14T05:23:59.151Z,85.26
2023-03-14T05:24:59.447Z,85.26
2023-03-14T05:25:59.596Z,85.47
2023-03-14T05:26:59.967Z,85.36
2023-03-14T05:28:00.198Z,85.36
2023-03-14T05:29:00.562Z,85.26
2023-03-14T05:30:00.784Z,85.16
2023-03-14T05:31:01.115Z,85.16
2023-03-14T05:32:01.461Z,85.26
2023-03-14T05:33:02.147Z,85.02
2023-03-14T05:34:01.952Z,84.95
2023-03-14T05:35:02.170Z,84.75
2023-03-14T05:36:02.448Z,84.71
2023-03-14T05:37:02.652Z,84.61
2023-03-14T05:38:02.992Z,84.30
2023-03-14T05:39:03.368Z,84.00
2023-03-14T05:40:04.574Z,83.69
2023-03-14T05:41:05.552Z,83.89
2023-03-14T05:42:05.008Z,84.00
2023-03-14T05:43:04.706Z,83.79
2023-03-14T05:44:05.591Z,83.48
2023-03-14T05:45:05.565Z,83.28
2023-03-14T05:46:06.596Z,83.18
2023-03-14T05:47:05.809Z,82.87
2023-03-14T05:48:06.057Z,82.87
2023-03-14T05:49:06.285Z,82.77
2023-03-14T05:50:06.611Z,82.56
2023-03-14T05:51:07.023Z,82.36
2023-03-14T05:52:07.315Z,82.26
2023-03-14T05:53:07.435Z,82.46
2023-03-14T05:54:07.649Z,82.46
2023-03-14T05:55:07.878Z,82.46
2023-03-14T05:56:08.125Z,82.26
2023-03-14T05:57:08.351Z,82.36
2023-03-14T05:58:08.683Z,82.26
2023-03-14T05:59:09.034Z,82.15
2023-03-14T06:00:09.268Z,82.26
2023-03-14T06:01:09.538Z,82.22
2023-03-14T06:02:09.802Z,82.05
2023-03-14T06:03:10.046Z,82.15
2023-03-14T06:04:10.242Z,82.05
2023-03-14T06:05:10.590Z,82.22
2023-03-14T06:06:11.062Z,82.22
2023-03-14T06:07:11.162Z,82.12
2023-03-14T06:08:11.515Z,82.12
2023-03-14T06:09:11.777Z,81.91
2023-03-14T06:10:11.992Z,82.01
2023-03-14T06:11:12.356Z,81.85
2023-03-14T06:12:12.582Z,81.85
2023-03-14T06:13:12.793Z,81.85
2023-03-14T06:14:13.134Z,81.81
2023-03-14T06:15:13.460Z,81.81
2023-03-14T06:16:13.845Z,81.60
2023-03-14T06:17:14.154Z,81.40
2023-03-14T06:18:14.575Z,81.30
2023-03-14T06:19:14.835Z,81.30
2023-03-14T06:20:14.890Z,81.30
2023-03-14T06:21:16.502Z,81.30
2023-03-14T06:22:15.615Z,81.10
2023-03-14T06:23:15.842Z,81.30
2023-03-14T06:24:16.109Z,81.20
2023-03-14T06:25:16.323Z,81.10
2023-03-14T06:26:16.743Z,81.10
2023-03-14T06:27:16.808Z,81.10
2023-03-14T06:28:17.151Z,81.30
2023-03-14T06:29:17.475Z,81.40
2023-03-14T06:30:17.824Z,81.51
2023-03-14T06:31:18.554Z,81.30
2023-03-14T06:32:18.743Z,81.40
2023-03-14T06:33:18.785Z,81.51
2023-03-14T06:34:19.136Z,81.40
2023-03-14T06:35:20.287Z,81.30
2023-03-14T06:36:19.672Z,81.20
2023-03-14T06:37:21.042Z,81.51
2023-03-14T06:38:20.200Z,81.40
2023-03-14T06:39:20.465Z,81.51
2023-03-14T06:40:20.721Z,81.65
2023-03-14T06:41:20.997Z,82.05
2023-03-14T06:42:21.252Z,82.22
2023-03-14T06:43:21.576Z,82.22
2023-03-14T06:44:22.710Z,82.01
2023-03-14T06:45:22.095Z,82.42
2023-03-14T06:46:22.397Z,82.53
2023-03-14T06:47:22.605Z,82.93
2023-03-14T06:48:23.317Z,83.04
2023-03-14T06:49:23.104Z,83.24
2023-03-14T06:50:23.486Z,83.07
2023-03-14T06:51:23.710Z,83.18
2023-03-14T06:52:24.094Z,82.87
2023-03-14T06:53:24.281Z,82.77
2023-03-14T06:54:24.518Z,82.46
2023-03-14T06:55:24.762Z,82.46
2023-03-14T06:56:24.994Z,82.53
2023-03-14T06:57:25.216Z,82.73
2023-03-14T06:58:25.619Z,82.83
2023-03-14T06:59:26.755Z,82.63
2023-03-14T07:00:26.116Z,82.63
2023-03-14T07:01:26.424Z,81.91
2023-03-14T07:02:39.940Z,81.81
2023-03-14T07:03:27.910Z,81.81
2023-03-14T07:04:27.225Z,81.81
2023-03-14T07:05:27.527Z,81.91
2023-03-14T07:06:27.765Z,82.01
2023-03-14T07:07:27.969Z,81.81
2023-03-14T07:08:28.353Z,81.71
2023-03-14T07:09:28.563Z,81.71
2023-03-14T07:10:29.012Z,81.51
2023-03-14T07:11:29.222Z,81.40
2023-03-14T07:12:29.626Z,80.99
2023-03-14T07:13:29.705Z,80.99
2023-03-14T07:14:30.051Z,80.79
2023-03-14T07:15:30.416Z,80.69
2023-03-14T07:16:30.846Z,80.58
2023-03-14T07:17:30.904Z,80.89
2023-03-14T07:18:31.272Z,80.89
2023-03-14T07:19:31.537Z,80.48
2023-03-14T07:20:31.828Z,80.48
2023-03-14T07:21:32.063Z,80.55
2023-03-14T07:22:32.308Z,80.65
2023-03-14T07:23:32.532Z,80.34
2023-03-14T07:24:32.953Z,79.63
2023-03-14T07:25:33.046Z,79.63
2023-03-14T07:26:33.244Z,79.02
2023-03-14T07:27:33.507Z,79.63
2023-03-14T07:28:33.757Z,79.93
2023-03-14T07:29:34.038Z,80.14
2023-03-14T07:30:34.357Z,79.93
2023-03-14T07:31:34.597Z,80.04
2023-03-14T07:32:34.916Z,80.04
2023-03-14T07:33:35.237Z,80.04
2023-03-14T07:34:35.498Z,80.38
2023-03-14T07:35:35.753Z,80.44
2023-03-14T07:36:36.049Z,80.14
2023-03-14T07:37:36.224Z,80.24
2023-03-14T07:38:36.469Z,80.55
2023-03-14T07:39:36.838Z,80.71
2023-03-14T07:40:37.140Z,80.10
2023-03-14T07:41:37.366Z,79.80
2023-03-14T07:42:37.772Z,79.28
2023-03-14T07:43:38.011Z,79.39
2023-03-14T07:44:38.238Z,79.39
2023-03-14T07:45:42.884Z,79.69
2023-03-14T07:46:38.890Z,79.49
2023-03-14T07:47:38.977Z,79.28
2023-03-14T07:48:39.307Z,78.88
2023-03-14T07:49:39.583Z,78.77
2023-03-14T07:50:39.836Z,78.67
2023-03-14T07:51:40.055Z,79.18
2023-03-14T07:52:40.347Z,79.08
2023-03-14T07:53:40.673Z,79.08
2023-03-14T07:54:41.442Z,79.25
2023-03-14T07:55:42.221Z,78.74
2023-03-14T07:56:41.445Z,78.53
2023-03-14T07:57:41.905Z,78.23
2023-03-14T07:58:42.008Z,77.82
2023-03-14T07:59:43.542Z,77.82
2023-03-14T08:00:43.219Z,77.37
2023-03-14T08:01:42.790Z,77.17
2023-03-14T08:02:43.451Z,76.87
2023-03-14T08:03:43.491Z,77.27
2023-03-14T08:04:43.685Z,76.97
2023-03-14T08:05:45.755Z,77.27
2023-03-14T08:06:44.677Z,77.72
2023-03-14T08:07:52.029Z,78.23
2023-03-14T08:08:44.890Z,78.74
2023-03-14T08:09:45.126Z,79.14
2023-03-14T08:10:45.359Z,79.35
2023-03-14T08:11:45.636Z,79.04
2023-03-14T08:12:47.596Z,78.70
2023-03-14T08:13:47.307Z,78.60
2023-03-14T08:14:49.407Z,78.50
2023-03-14T08:15:46.815Z,78.26
2023-03-14T08:16:47.889Z,77.20
2023-03-14T08:17:47.622Z,76.73
2023-03-14T08:18:47.746Z,76.90
2023-03-14T08:19:48.182Z,76.83
2023-03-14T08:20:48.372Z,77.03
2023-03-14T08:21:48.490Z,77.03
2023-03-14T08:22:48.863Z,77.24
2023-03-14T08:23:49.096Z,76.90
2023-03-14T08:24:49.336Z,76.69
2023-03-14T08:25:49.724Z,76.49
2023-03-14T08:26:49.932Z,76.73
2023-03-14T08:27:50.165Z,77.00
2023-03-14T08:28:51.395Z,76.42
2023-03-14T08:29:52.218Z,77.03
2023-03-14T08:30:51.134Z,77.34
2023-03-14T08:31:55.777Z,77.89
2023-03-14T08:32:53.498Z,77.78
2023-03-14T08:33:51.832Z,77.98
2023-03-14T08:34:52.228Z,77.89
2023-03-14T08:35:52.530Z,78.09
2023-03-14T08:36:52.804Z,77.98
2023-03-14T08:37:53.063Z,77.98
2023-03-14T08:38:53.371Z,77.98
2023-03-14T08:39:53.650Z,77.75
2023-03-14T08:40:54.778Z,77.75
2023-03-14T08:41:57.169Z,77.24
2023-03-14T08:42:55.149Z,77.44
2023-03-14T08:43:57.980Z,77.55
2023-03-14T08:44:54.888Z,77.24
2023-03-14T08:46:05.747Z,77.14
2023-03-14T08:47:00.818Z,77.14
2023-03-14T08:47:56.588Z,77.07
2023-03-14T08:48:56.020Z,77.34
2023-03-14T08:49:56.263Z,76.93
2023-03-14T08:50:56.494Z,76.83
2023-03-14T08:51:56.934Z,76.39
2023-03-14T08:52:57.031Z,76.08
2023-03-14T08:53:57.290Z,75.88
2023-03-14T08:54:57.999Z,75.98
2023-03-14T08:55:57.882Z,76.42
2023-03-14T08:56:58.118Z,76.62
2023-03-14T08:57:58.378Z,76.79
2023-03-14T08:58:58.726Z,76.59
2023-03-14T08:59:59.437Z,76.18
2023-03-14T09:00:59.168Z,75.47
2023-03-14T09:01:59.436Z,75.47
2023-03-14T09:02:59.743Z,75.37
2023-03-14T09:04:00.021Z,75.67
2023-03-14T09:05:00.260Z,75.67
2023-03-14T09:06:00.549Z,76.18
2023-03-14T09:07:00.815Z,75.57
2023-03-14T09:08:01.045Z,75.78
2023-03-14T09:09:01.326Z,75.67
2023-03-14T09:10:01.582Z,75.67
2023-03-14T09:11:02.057Z,75.16
2023-03-14T09:12:02.149Z,75.57
2023-03-14T09:13:02.339Z,75.47
2023-03-14T09:14:02.609Z,75.16
2023-03-14T09:15:02.969Z,75.27
2023-03-14T09:16:03.198Z,75.37
2023-03-14T09:17:03.470Z,75.67
2023-03-14T09:18:03.747Z,75.88
2023-03-14T09:19:05.144Z,75.78
2023-03-14T09:20:04.652Z,75.57
2023-03-14T09:21:04.611Z,75.43
2023-03-14T09:22:04.922Z,75.13
2023-03-14T09:23:05.188Z,74.93
2023-03-14T09:24:05.453Z,75.02
2023-03-14T09:25:05.754Z,75.33
2023-03-14T09:26:05.965Z,75.23
2023-03-14T09:27:07.571Z,75.33
2023-03-14T09:28:06.882Z,75.23
2023-03-14T09:29:06.847Z,75.23
2023-03-14T09:30:07.096Z,75.57
2023-03-14T09:31:07.332Z,76.39
2023-03-14T09:32:08.549Z,76.28
2023-03-14T09:33:08.038Z,76.39
2023-03-14T09:34:08.653Z,76.69
2023-03-14T09:35:08.613Z,76.59
2023-03-14T09:36:08.910Z,76.45
2023-03-14T09:37:09.124Z,76.45
2023-03-14T09:38:09.366Z,76.45
2023-03-14T09:39:09.634Z,76.25
2023-03-14T09:40:10.398Z,76.76
2023-03-14T09:41:10.124Z,77.10
2023-03-14T09:42:10.482Z,77.40
2023-03-14T09:43:10.965Z,77.51
2023-03-14T09:44:11.015Z,77.61
2023-03-14T09:45:11.273Z,77.30
2023-03-14T09:46:11.678Z,77.51
2023-03-14T09:47:12.107Z,77.61
2023-03-14T09:48:12.136Z,77.61
2023-03-14T09:49:13.487Z,77.40
2023-03-14T09:50:12.620Z,77.61
2023-03-14T09:51:15.020Z,77.91
2023-03-14T09:52:13.468Z,77.81
2023-03-14T09:53:14.437Z,77.81
2023-03-14T09:54:14.321Z,78.42
2023-03-14T09:55:14.079Z,78.73
2023-03-14T09:56:14.289Z,78.83
2023-03-14T09:57:14.604Z,78.83
2023-03-14T09:58:15.599Z,78.93
2023-03-14T09:59:15.545Z,79.44
2023-03-14T10:00:18.631Z,79.34
2023-03-14T10:01:17.678Z,79.14
2023-03-14T10:02:16.444Z,78.93
2023-03-14T10:03:16.600Z,79.79
2023-03-14T10:04:17.335Z,79.99
2023-03-14T10:05:16.952Z,80.29
2023-03-14T10:06:17.574Z,80.29
2023-03-14T10:07:17.463Z,80.60
2023-03-14T10:08:17.760Z,80.84
2023-03-14T10:09:17.992Z,80.70
2023-03-14T10:10:18.296Z,80.19
2023-03-14T10:11:18.615Z,80.05
2023-03-14T10:12:18.853Z,79.75
2023-03-14T10:13:19.439Z,79.75
2023-03-14T10:14:19.350Z,79.34
2023-03-14T10:15:19.646Z,79.64
2023-03-14T10:16:20.085Z,79.95
2023-03-14T10:17:20.159Z,79.95
2023-03-14T10:18:20.428Z,79.95
2023-03-14T10:19:20.687Z,79.95
2023-03-14T10:20:21.006Z,80.36
2023-03-14T10:21:21.211Z,80.66
2023-03-14T10:22:21.470Z,81.21
2023-03-14T10:23:21.769Z,81.72
2023-03-14T10:24:22.016Z,81.72
2023-03-14T10:25:22.252Z,82.23
2023-03-14T10:26:22.552Z,82.43
2023-03-14T10:27:22.825Z,82.43
2023-03-14T10:28:23.041Z,83.04
2023-03-14T10:29:23.367Z,83.45
2023-03-14T10:30:23.561Z,82.80
2023-03-14T10:31:23.872Z,82.09
2023-03-14T10:32:24.092Z,81.82
2023-03-14T10:33:24.346Z,82.54
2023-03-14T10:34:24.585Z,82.74
2023-03-14T10:35:24.816Z,82.74
2023-03-14T10:36:25.158Z,82.78
2023-03-14T10:37:25.364Z,83.09
2023-03-14T10:38:25.633Z,83.29
2023-03-14T10:39:25.910Z,83.39
2023-03-14T10:40:26.172Z,83.04
2023-03-14T10:41:26.421Z,82.84
2023-03-14T10:42:26.677Z,82.54
2023-03-14T10:43:26.938Z,82.74
2023-03-14T10:44:27.235Z,82.64
2023-03-14T10:45:27.472Z,82.94
2023-03-14T10:46:27.746Z,83.45
2023-03-14T10:47:27.945Z,83.65
2023-03-14T10:48:28.312Z,83.45
2023-03-14T10:49:28.665Z,83.56
2023-03-14T10:50:28.891Z,84.37
2023-03-14T10:51:29.126Z,84.31
2023-03-14T10:52:31.091Z,84.82
2023-03-14T10:53:31.623Z,85.88
2023-03-14T10:54:29.887Z,85.77
2023-03-14T10:55:30.104Z,86.08
2023-03-14T10:56:33.202Z,86.39
2023-03-14T10:57:30.780Z,87.20
2023-03-14T10:58:33.102Z,87.30
2023-03-14T10:59:32.383Z,87.41
2023-03-14T11:00:32.825Z,87.10
2023-03-14T11:01:32.696Z,86.90
2023-03-14T11:02:32.336Z,87.41
2023-03-14T11:03:34.388Z,88.06
2023-03-14T11:04:32.969Z,88.17
2023-03-14T11:05:33.186Z,88.78
2023-03-14T11:06:33.422Z,89.08
2023-03-14T11:07:33.715Z,88.98
2023-03-14T11:08:33.920Z,88.73
2023-03-14T11:09:34.175Z,88.47
2023-03-14T11:10:34.426Z,88.37
2023-03-14T11:11:34.653Z,88.78
2023-03-14T11:12:34.908Z,88.98
2023-03-14T11:13:35.147Z,88.88
2023-03-14T11:14:35.390Z,88.98
2023-03-14T11:15:35.713Z,89.18
2023-03-14T11:16:36.871Z,88.78
2023-03-14T11:17:36.268Z,88.98
2023-03-14T11:18:36.534Z,89.18
2023-03-14T11:19:37.732Z,88.78
2023-03-14T11:20:37.012Z,88.78
2023-03-14T11:21:37.247Z,89.08
2023-03-14T11:22:37.565Z,89.32
2023-03-14T11:23:37.787Z,89.84
2023-03-14T11:24:38.022Z,89.90
2023-03-14T11:25:38.235Z,89.63
2023-03-14T11:26:38.553Z,89.69
2023-03-14T11:27:38.833Z,89.84
2023-03-14T11:28:39.077Z,90.00
2023-03-14T11:29:39.319Z,90.41
2023-03-14T11:30:39.538Z,90.20
2023-03-14T11:31:39.913Z,90.20
2023-03-14T11:32:40.313Z,90.04
2023-03-14T11:33:40.458Z,90.55
2023-03-14T11:34:40.738Z,91.06
2023-03-14T11:35:42.092Z,90.75
2023-03-14T11:36:41.263Z,90.75
2023-03-14T11:37:41.462Z,91.06
2023-03-14T11:38:41.827Z,91.67
2023-03-14T11:39:42.113Z,91.67
2023-03-14T11:40:42.326Z,91.47
2023-03-14T11:41:42.642Z,91.57
2023-03-14T11:42:43.008Z,91.57
2023-03-14T11:43:43.241Z,91.92
2023-03-14T11:44:43.491Z,91.20
2023-03-14T11:45:44.227Z,90.90
2023-03-14T11:46:44.303Z,91.52
2023-03-14T11:47:44.257Z,89.88
2023-03-14T11:48:44.548Z,89.78
2023-03-14T11:49:45.221Z,89.98
2023-03-14T11:50:45.279Z,89.11
2023-03-14T11:51:45.423Z,89.51
2023-03-14T11:52:45.620Z,89.31
2023-03-14T11:53:45.867Z,89.61
2023-03-14T11:54:46.147Z,88.45
2023-03-14T11:55:46.429Z,87.23
2023-03-14T11:56:46.658Z,87.23
2023-03-14T11:57:46.966Z,85.79
2023-03-14T11:58:47.203Z,85.28
2023-03-14T11:59:47.690Z,84.88
2023-03-14T12:00:47.760Z,84.88
2023-03-14T12:01:47.939Z,83.85
2023-03-14T12:02:48.717Z,84.33
2023-03-14T12:03:48.611Z,84.01
2023-03-14T12:04:49.204Z,83.51
2023-03-14T12:05:49.148Z,82.18
2023-03-14T12:06:49.401Z,82.28
2023-03-14T12:07:50.264Z,82.69
2023-03-14T12:08:50.054Z,81.87
2023-03-14T12:09:50.205Z,81.77
2023-03-14T12:10:50.414Z,81.81
2023-03-14T12:11:50.750Z,82.01
2023-03-14T12:12:50.991Z,81.91
2023-03-14T12:13:51.233Z,82.32
2023-03-14T12:14:51.573Z,82.32
2023-03-14T12:15:51.892Z,82.01
2023-03-14T12:16:52.134Z,82.77
2023-03-14T12:17:52.464Z,82.46
2023-03-14T12:18:52.608Z,82.77
2023-03-14T12:19:52.912Z,83.07
2023-03-14T12:20:53.119Z,82.87
2023-03-14T12:21:53.421Z,82.87
2023-03-14T12:22:53.610Z,83.07
2023-03-14T12:23:54.054Z,83.18
2023-03-14T12:24:54.185Z,83.07
2023-03-14T12:25:54.533Z,83.18
2023-03-14T12:26:55.319Z,82.77
2023-03-14T12:27:56.431Z,82.97
2023-03-14T12:28:55.510Z,82.77
2023-03-14T12:29:55.805Z,82.67
2023-03-14T12:30:56.282Z,81.38
2023-03-14T12:31:56.343Z,81.58
2023-03-14T12:32:56.604Z,81.17
2023-03-14T12:33:56.859Z,80.56
2023-03-14T12:34:57.203Z,79.74
2023-03-14T12:35:58.468Z,79.23
2023-03-14T12:36:57.703Z,78.61
2023-03-14T12:37:58.188Z,77.70
2023-03-14T12:38:58.395Z,77.76
2023-03-14T12:39:58.678Z,77.25
2023-03-14T12:40:58.940Z,77.15
2023-03-14T12:41:59.231Z,76.94
2023-03-14T12:42:59.563Z,76.74
2023-03-14T12:43:59.738Z,76.64
2023-03-14T12:45:00.483Z,76.64
2023-03-14T12:46:00.248Z,76.33
2023-03-14T12:47:00.503Z,75.71
2023-03-14T12:48:00.736Z,75.21
2023-03-14T12:49:00.942Z,74.69
2023-03-14T12:50:01.345Z,74.59
2023-03-14T12:51:01.578Z,74.18
2023-03-14T12:52:01.871Z,74.08
2023-03-14T12:53:02.217Z,73.88
2023-03-14T12:54:02.453Z,72.96
2023-03-14T12:55:02.653Z,73.36
2023-03-14T12:56:02.885Z,74.08